createdAt,value
2018-02-15T00:00:26.289Z,1020.18
2018-02-15T00:01:26.307Z,1020.17
2018-02-15T00:02:26.329Z,1020.16
2018-02-15T00:03:26.337Z,1020.19
2018-02-15T00:04:26.360Z,1020.17
2018-02-15T00:05:26.368Z,1020.21
2018-02-15T00:06:26.397Z,1020.18
2018-02-15T00:07:26.416Z,1020.24
2018-02-15T00:08:26.440Z,1020.20
2018-02-15T00:09:26.446Z,1020.20
2018-02-15T00:10:26.462Z,1020.19
2018-02-15T00:11:26.491Z,1020.14
2018-02-15T00:12:26.506Z,1020.11
2018-02-15T00:13:26.532Z,1020.13
2018-02-15T00:14:26.543Z,1020.10
2018-02-15T00:15:26.561Z,1020.11
2018-02-15T00:16:26.581Z,1020.07
2018-02-15T00:17:26.587Z,1020.11
2018-02-15T00:18:26.616Z,1020.10
2018-02-15T00:19:26.640Z,1020.11
2018-02-15T00:20:26.640Z,1020.07
2018-02-15T00:21:26.666Z,1020.06
2018-02-15T00:22:26.682Z,1020.07
2018-02-15T00:23:26.696Z,1020.05
2018-02-15T00:24:26.738Z,1020.07
2018-02-15T00:25:26.735Z,1020.05
2018-02-15T00:26:26.755Z,1020.06
2018-02-15T00:27:26.767Z,1020.03
2018-02-15T00:28:26.794Z,1020.10
2018-02-15T00:29:26.809Z,1020.08
2018-02-15T00:30:26.831Z,1020.10
2018-02-15T00:31:26.846Z,1020.08
2018-02-15T00:32:26.861Z,1020.11
2018-02-15T00:33:26.883Z,1020.13
2018-02-15T00:34:26.908Z,1020.10
2018-02-15T00:35:26.940Z,1020.12
2018-02-15T00:36:26.947Z,1020.18
2018-02-15T00:37:26.982Z,1020.17
2018-02-15T00:38:26.968Z,1020.16
2018-02-15T00:39:27.866Z,1020.17
2018-02-15T00:40:27.007Z,1020.17
2018-02-15T00:41:27.055Z,1020.21
2018-02-15T00:42:27.050Z,1020.20
2018-02-15T00:43:27.064Z,1020.23
2018-02-15T00:44:27.084Z,1020.21
2018-02-15T00:45:27.092Z,1020.19
2018-02-15T00:46:27.128Z,1020.19
2018-02-15T00:47:27.133Z,1020.13
2018-02-15T00:48:27.154Z,1020.11
2018-02-15T00:49:27.172Z,1020.12
2018-02-15T00:50:27.184Z,1020.11
2018-02-15T00:51:27.207Z,1020.04
2018-02-15T00:52:27.242Z,1020.06
2018-02-15T00:53:27.244Z,1020.06
2018-02-15T00:54:27.264Z,1020.11
2018-02-15T00:55:27.372Z,1020.11
2018-02-15T00:56:27.301Z,1020.09
2018-02-15T00:57:27.314Z,1020.04
2018-02-15T00:58:27.337Z,1020.04
2018-02-15T00:59:27.356Z,1020.06
2018-02-15T01:00:27.371Z,1020.08
2018-02-15T01:01:27.385Z,1020.08
2018-02-15T01:02:27.474Z,1020.10
2018-02-15T01:03:27.428Z,1020.09
2018-02-15T01:04:27.460Z,1020.10
2018-02-15T01:05:27.465Z,1020.06
2018-02-15T01:06:27.477Z,1020.06
2018-02-15T01:07:27.502Z,1020.05
2018-02-15T01:08:27.515Z,1020.07
2018-02-15T01:09:27.540Z,1020.07
2018-02-15T01:10:27.556Z,1020.07
2018-02-15T01:11:27.591Z,1020.07
2018-02-15T01:12:27.594Z,1020.09
2018-02-15T01:13:27.613Z,1020.03
2018-02-15T01:14:27.638Z,1020.04
2018-02-15T01:15:27.639Z,1019.97
2018-02-15T01:16:27.665Z,1020.00
2018-02-15T01:17:27.681Z,1020.03
2018-02-15T01:18:27.691Z,1020.03
2018-02-15T01:19:27.723Z,1020.05
2018-02-15T01:20:27.731Z,1020.08
2018-02-15T01:21:27.778Z,1020.06
2018-02-15T01:22:27.765Z,1020.03
2018-02-15T01:23:27.791Z,1019.98
2018-02-15T01:24:27.816Z,1020.01
2018-02-15T01:25:27.822Z,1020.00
2018-02-15T01:26:27.840Z,1019.99
2018-02-15T01:27:27.872Z,1019.94
2018-02-15T01:28:27.894Z,1019.97
2018-02-15T01:29:27.901Z,1019.91
2018-02-15T01:30:27.920Z,1019.93
2018-02-15T01:31:27.942Z,1019.93
2018-02-15T01:32:27.947Z,1019.93
2018-02-15T01:33:27.974Z,1019.96
2018-02-15T01:34:27.984Z,1019.96
2018-02-15T01:35:28.013Z,1019.92
2018-02-15T01:36:28.021Z,1019.98
2018-02-15T01:37:28.044Z,1019.95
2018-02-15T01:38:28.063Z,1019.95
2018-02-15T01:39:28.088Z,1019.92
2018-02-15T01:40:28.110Z,1019.94
2018-02-15T01:41:28.111Z,1019.92
2018-02-15T01:42:28.139Z,1019.93
2018-02-15T01:43:28.149Z,1019.96
2018-02-15T01:44:28.177Z,1019.93
2018-02-15T01:45:28.195Z,1019.96
2018-02-15T01:46:28.209Z,1019.96
2018-02-15T01:47:28.228Z,1019.90
2018-02-15T01:48:28.235Z,1019.90
2018-02-15T01:49:28.259Z,1019.90
2018-02-15T01:50:28.275Z,1019.90
2018-02-15T01:51:28.308Z,1019.90
2018-02-15T01:52:28.314Z,1019.90
2018-02-15T01:53:28.339Z,1019.88
2018-02-15T01:54:28.370Z,1019.88
2018-02-15T01:55:28.367Z,1019.86
2018-02-15T01:56:28.390Z,1019.86
2018-02-15T01:57:28.431Z,1019.86
2018-02-15T01:58:28.423Z,1019.87
2018-02-15T01:59:28.440Z,1019.87
2018-02-15T02:00:28.457Z,1019.82
2018-02-15T02:01:28.486Z,1019.84
2018-02-15T02:02:28.495Z,1019.78
2018-02-15T02:03:28.509Z,1019.80
2018-02-15T02:04:28.528Z,1019.78
2018-02-15T02:05:28.552Z,1019.78
2018-02-15T02:06:28.561Z,1019.75
2018-02-15T02:07:28.581Z,1019.71
2018-02-15T02:08:28.607Z,1019.75
2018-02-15T02:09:28.622Z,1019.75
2018-02-15T02:10:28.753Z,1019.69
2018-02-15T02:11:28.652Z,1019.68
2018-02-15T02:12:28.676Z,1019.64
2018-02-15T02:13:28.692Z,1019.61
2018-02-15T02:14:28.718Z,1019.57
2018-02-15T02:15:28.730Z,1019.58
2018-02-15T02:16:28.755Z,1019.57
2018-02-15T02:17:28.768Z,1019.58
2018-02-15T02:18:28.776Z,1019.59
2018-02-15T02:19:28.800Z,1019.59
2018-02-15T02:20:28.822Z,1019.61
2018-02-15T02:21:28.877Z,1019.58
2018-02-15T02:22:28.856Z,1019.62
2018-02-15T02:23:29.360Z,1019.64
2018-02-15T02:24:28.890Z,1019.65
2018-02-15T02:25:28.929Z,1019.68
2018-02-15T02:26:28.944Z,1019.65
2018-02-15T02:27:28.974Z,1019.64
2018-02-15T02:28:28.965Z,1019.66
2018-02-15T02:29:28.987Z,1019.69
2018-02-15T02:30:28.999Z,1019.68
2018-02-15T02:31:29.017Z,1019.73
2018-02-15T02:32:29.034Z,1019.78
2018-02-15T02:33:29.069Z,1019.73
2018-02-15T02:34:29.075Z,1019.74
2018-02-15T02:35:29.184Z,1019.74
2018-02-15T02:36:29.118Z,1019.75
2018-02-15T02:37:29.127Z,1019.77
2018-02-15T02:38:29.153Z,1019.77
2018-02-15T02:39:29.164Z,1019.77
2018-02-15T02:40:29.216Z,1019.76
2018-02-15T02:41:29.199Z,1019.77
2018-02-15T02:42:29.232Z,1019.78
2018-02-15T02:43:29.246Z,1019.78
2018-02-15T02:44:29.250Z,1019.81
2018-02-15T02:45:29.273Z,1019.84
2018-02-15T02:46:29.285Z,1019.77
2018-02-15T02:47:29.299Z,1019.81
2018-02-15T02:48:29.326Z,1019.84
2018-02-15T02:49:29.860Z,1019.83
2018-02-15T02:50:29.364Z,1019.83
2018-02-15T02:51:29.394Z,1019.86
2018-02-15T02:52:29.400Z,1019.84
2018-02-15T02:53:29.439Z,1019.82
2018-02-15T02:54:29.547Z,1019.84
2018-02-15T02:55:29.486Z,1019.81
2018-02-15T02:56:29.468Z,1019.78
2018-02-15T02:57:29.484Z,1019.78
2018-02-15T02:58:29.500Z,1019.72
2018-02-15T02:59:29.520Z,1019.71
2018-02-15T03:00:29.536Z,1019.70
2018-02-15T03:01:29.616Z,1019.67
2018-02-15T03:02:29.642Z,1019.69
2018-02-15T03:03:29.595Z,1019.68
2018-02-15T03:04:29.617Z,1019.68
2018-02-15T03:05:29.629Z,1019.63
2018-02-15T03:06:29.665Z,1019.62
2018-02-15T03:07:29.670Z,1019.61
2018-02-15T03:08:29.684Z,1019.58
2018-02-15T03:09:29.697Z,1019.52
2018-02-15T03:10:29.730Z,1019.54
2018-02-15T03:11:29.741Z,1019.51
2018-02-15T03:12:29.751Z,1019.55
2018-02-15T03:13:29.770Z,1019.54
2018-02-15T03:14:29.788Z,1019.56
2018-02-15T03:15:29.806Z,1019.60
2018-02-15T03:16:29.829Z,1019.55
2018-02-15T03:17:29.844Z,1019.52
2018-02-15T03:18:29.860Z,1019.51
2018-02-15T03:19:29.914Z,1019.53
2018-02-15T03:20:29.903Z,1019.52
2018-02-15T03:21:29.917Z,1019.49
2018-02-15T03:22:29.951Z,1019.51
2018-02-15T03:23:29.969Z,1019.52
2018-02-15T03:24:29.971Z,1019.49
2018-02-15T03:25:30.007Z,1019.44
2018-02-15T03:26:30.011Z,1019.46
2018-02-15T03:27:30.024Z,1019.43
2018-02-15T03:28:30.066Z,1019.45
2018-02-15T03:29:30.065Z,1019.42
2018-02-15T03:30:30.086Z,1019.39
2018-02-15T03:31:30.094Z,1019.31
2018-02-15T03:32:30.122Z,1019.37
2018-02-15T03:33:30.130Z,1019.28
2018-02-15T03:34:30.170Z,1019.29
2018-02-15T03:35:30.163Z,1019.32
2018-02-15T03:36:30.186Z,1019.29
2018-02-15T03:37:30.207Z,1019.26
2018-02-15T03:38:30.227Z,1019.25
2018-02-15T03:39:30.247Z,1019.25
2018-02-15T03:40:30.253Z,1019.25
2018-02-15T03:41:30.293Z,1019.23
2018-02-15T03:42:30.300Z,1019.21
2018-02-15T03:43:30.315Z,1019.25
2018-02-15T03:44:30.327Z,1019.24
2018-02-15T03:45:30.355Z,1019.26
2018-02-15T03:46:30.363Z,1019.27
2018-02-15T03:47:30.401Z,1019.25
2018-02-15T03:48:30.404Z,1019.27
2018-02-15T03:49:30.417Z,1019.29
2018-02-15T03:50:30.464Z,1019.28
2018-02-15T03:51:30.465Z,1019.30
2018-02-15T03:52:30.476Z,1019.30
2018-02-15T03:53:30.496Z,1019.27
2018-02-15T03:54:30.510Z,1019.27
2018-02-15T03:55:30.527Z,1019.22
2018-02-15T03:56:30.546Z,1019.27
2018-02-15T03:57:30.566Z,1019.24
2018-02-15T03:58:30.580Z,1019.23
2018-02-15T03:59:30.597Z,1019.28
2018-02-15T04:00:30.629Z,1019.29
2018-02-15T04:01:30.639Z,1019.30
2018-02-15T04:02:30.649Z,1019.29
2018-02-15T04:03:30.663Z,1019.25
2018-02-15T04:04:30.689Z,1019.27
2018-02-15T04:05:30.711Z,1019.24
2018-02-15T04:06:30.738Z,1019.19
2018-02-15T04:07:30.738Z,1019.18
2018-02-15T04:08:30.763Z,1019.18
2018-02-15T04:09:30.777Z,1019.15
2018-02-15T04:10:30.802Z,1019.19
2018-02-15T04:11:30.816Z,1019.21
2018-02-15T04:12:30.834Z,1019.22
2018-02-15T04:13:30.847Z,1019.20
2018-02-15T04:14:30.866Z,1019.20
2018-02-15T04:15:30.885Z,1019.16
2018-02-15T04:16:30.904Z,1019.18
2018-02-15T04:17:30.917Z,1019.13
2018-02-15T04:18:30.935Z,1019.12
2018-02-15T04:19:30.952Z,1019.13
2018-02-15T04:20:30.974Z,1019.11
2018-02-15T04:21:30.990Z,1019.10
2018-02-15T04:22:31.016Z,1019.10
2018-02-15T04:23:31.021Z,1019.06
2018-02-15T04:24:31.104Z,1019.07
2018-02-15T04:25:31.059Z,1019.03
2018-02-15T04:26:31.094Z,1019.07
2018-02-15T04:27:31.099Z,1019.03
2018-02-15T04:28:31.111Z,1019.05
2018-02-15T04:29:31.139Z,1019.07
2018-02-15T04:30:31.163Z,1019.09
2018-02-15T04:31:31.190Z,1019.08
2018-02-15T04:32:31.182Z,1019.13
2018-02-15T04:33:31.248Z,1019.12
2018-02-15T04:34:31.216Z,1019.11
2018-02-15T04:35:31.257Z,1019.14
2018-02-15T04:36:31.264Z,1019.10
2018-02-15T04:37:31.275Z,1019.07
2018-02-15T04:38:31.315Z,1019.07
2018-02-15T04:39:31.323Z,1019.08
2018-02-15T04:40:31.328Z,1019.13
2018-02-15T04:41:31.351Z,1019.15
2018-02-15T04:42:31.360Z,1019.13
2018-02-15T04:43:31.380Z,1019.13
2018-02-15T04:44:31.398Z,1019.08
2018-02-15T04:45:31.433Z,1019.15
2018-02-15T04:46:31.434Z,1019.11
2018-02-15T04:47:31.447Z,1019.07
2018-02-15T04:48:31.566Z,1019.04
2018-02-15T04:49:31.495Z,1019.10
2018-02-15T04:50:31.604Z,1019.08
2018-02-15T04:51:31.517Z,1019.09
2018-02-15T04:52:31.571Z,1019.10
2018-02-15T04:53:31.562Z,1019.16
2018-02-15T04:54:31.592Z,1019.08
2018-02-15T04:55:31.606Z,1019.11
2018-02-15T04:56:31.612Z,1019.15
2018-02-15T04:57:31.625Z,1019.09
2018-02-15T04:58:31.669Z,1019.13
2018-02-15T04:59:31.672Z,1019.12
2018-02-15T05:00:31.697Z,1019.12
2018-02-15T05:01:31.707Z,1019.12
2018-02-15T05:02:31.720Z,1019.10
2018-02-15T05:03:31.734Z,1019.14
2018-02-15T05:04:31.768Z,1019.12
2018-02-15T05:05:31.776Z,1019.19
2018-02-15T05:06:31.785Z,1019.22
2018-02-15T05:07:31.811Z,1019.21
2018-02-15T05:08:31.837Z,1019.20
2018-02-15T05:09:31.847Z,1019.22
2018-02-15T05:10:31.860Z,1019.26
2018-02-15T05:11:31.877Z,1019.28
2018-02-15T05:12:31.893Z,1019.23
2018-02-15T05:13:31.910Z,1019.24
2018-02-15T05:14:31.942Z,1019.18
2018-02-15T05:15:31.946Z,1019.20
2018-02-15T05:16:31.967Z,1019.17
2018-02-15T05:17:31.986Z,1019.21
2018-02-15T05:18:32.010Z,1019.21
2018-02-15T05:19:32.049Z,1019.17
2018-02-15T05:20:32.045Z,1019.15
2018-02-15T05:21:32.061Z,1019.15
2018-02-15T05:22:32.073Z,1019.13
2018-02-15T05:23:32.087Z,1019.14
2018-02-15T05:24:32.108Z,1019.13
2018-02-15T05:25:32.127Z,1019.13
2018-02-15T05:26:32.140Z,1019.13
2018-02-15T05:27:32.159Z,1019.12
2018-02-15T05:28:32.176Z,1019.12
2018-02-15T05:29:32.198Z,1019.12
2018-02-15T05:30:32.215Z,1019.10
2018-02-15T05:31:32.244Z,1019.16
2018-02-15T05:32:32.244Z,1019.12
2018-02-15T05:33:32.285Z,1019.09
2018-02-15T05:34:32.293Z,1019.13
2018-02-15T05:35:32.320Z,1019.06
2018-02-15T05:36:32.341Z,1019.08
2018-02-15T05:37:32.333Z,1019.08
2018-02-15T05:38:32.363Z,1019.02
2018-02-15T05:39:32.378Z,1019.09
2018-02-15T05:40:32.386Z,1019.06
2018-02-15T05:41:32.417Z,1019.14
2018-02-15T05:42:32.433Z,1019.06
2018-02-15T05:43:32.448Z,1019.07
2018-02-15T05:44:32.464Z,1019.08
2018-02-15T05:45:32.480Z,1019.03
2018-02-15T05:46:32.499Z,1019.08
2018-02-15T05:47:32.533Z,1019.11
2018-02-15T05:48:32.533Z,1019.08
2018-02-15T05:49:32.562Z,1019.11
2018-02-15T05:50:32.574Z,1019.10
2018-02-15T05:51:32.589Z,1019.09
2018-02-15T05:52:32.629Z,1019.08
2018-02-15T05:53:32.626Z,1019.05
2018-02-15T05:54:32.643Z,1019.02
2018-02-15T05:55:32.666Z,1019.02
2018-02-15T05:56:32.671Z,1019.02
2018-02-15T05:57:32.711Z,1019.08
2018-02-15T05:58:32.715Z,1019.05
2018-02-15T05:59:32.728Z,1018.99
2018-02-15T06:00:32.750Z,1019.00
2018-02-15T06:01:32.773Z,1018.99
2018-02-15T06:02:32.806Z,1018.98
2018-02-15T06:03:32.805Z,1019.02
2018-02-15T06:04:32.825Z,1019.00
2018-02-15T06:05:32.913Z,1019.02
2018-02-15T06:06:32.917Z,1018.98
2018-02-15T06:07:32.927Z,1018.98
2018-02-15T06:08:32.938Z,1018.95
2018-02-15T06:09:32.966Z,1018.94
2018-02-15T06:10:33.000Z,1018.87
2018-02-15T06:11:33.924Z,1018.89
2018-02-15T06:12:33.016Z,1018.83
2018-02-15T06:14:33.007Z,1018.84
2018-02-15T06:15:33.010Z,1018.82
2018-02-15T06:16:33.091Z,1018.82
2018-02-15T06:17:33.049Z,1018.89
2018-02-15T06:18:33.062Z,1018.87
2018-02-15T06:19:33.220Z,1018.86
2018-02-15T06:20:33.102Z,1018.86
2018-02-15T06:21:33.122Z,1018.81
2018-02-15T06:22:33.137Z,1018.82
2018-02-15T06:23:33.156Z,1018.77
2018-02-15T06:24:33.181Z,1018.77
2018-02-15T06:25:33.243Z,1018.78
2018-02-15T06:26:33.218Z,1018.79
2018-02-15T06:27:33.224Z,1018.79
2018-02-15T06:28:33.250Z,1018.79
2018-02-15T06:29:33.292Z,1018.78
2018-02-15T06:30:33.294Z,1018.84
2018-02-15T06:31:33.296Z,1018.79
2018-02-15T06:32:33.311Z,1018.80
2018-02-15T06:33:33.338Z,1018.79
2018-02-15T06:34:33.361Z,1018.78
2018-02-15T06:35:33.378Z,1018.71
2018-02-15T06:36:34.352Z,1018.74
2018-02-15T06:37:33.396Z,1018.68
2018-02-15T06:38:33.496Z,1018.68
2018-02-15T06:39:33.447Z,1018.71
2018-02-15T06:40:33.463Z,1018.69
2018-02-15T06:41:33.481Z,1018.65
2018-02-15T06:42:33.488Z,1018.66
2018-02-15T06:43:33.506Z,1018.65
2018-02-15T06:44:33.530Z,1018.66
2018-02-15T06:45:33.546Z,1018.68
2018-02-15T06:46:33.569Z,1018.71
2018-02-15T06:47:33.575Z,1018.70
2018-02-15T06:48:33.593Z,1018.69
2018-02-15T06:49:33.668Z,1018.69
2018-02-15T06:50:33.650Z,1018.72
2018-02-15T06:51:33.649Z,1018.70
2018-02-15T06:52:33.670Z,1018.71
2018-02-15T06:53:33.705Z,1018.69
2018-02-15T06:54:33.740Z,1018.70
2018-02-15T06:55:33.732Z,1018.69
2018-02-15T06:56:33.736Z,1018.70
2018-02-15T06:57:33.762Z,1018.71
2018-02-15T06:58:33.768Z,1018.73
2018-02-15T06:59:33.798Z,1018.77
2018-02-15T07:00:33.813Z,1018.76
2018-02-15T07:01:33.834Z,1018.78
2018-02-15T07:02:33.843Z,1018.78
2018-02-15T07:03:33.860Z,1018.80
2018-02-15T07:04:33.878Z,1018.72
2018-02-15T07:05:33.896Z,1018.72
2018-02-15T07:06:33.919Z,1018.66
2018-02-15T07:07:33.943Z,1018.65
2018-02-15T07:08:33.953Z,1018.68
2018-02-15T07:09:33.972Z,1018.66
2018-02-15T07:10:33.994Z,1018.65
2018-02-15T07:11:34.003Z,1018.66
2018-02-15T07:12:34.027Z,1018.67
2018-02-15T07:13:34.043Z,1018.68
2018-02-15T07:14:34.053Z,1018.66
2018-02-15T07:15:34.080Z,1018.69
2018-02-15T07:16:34.172Z,1018.62
2018-02-15T07:17:34.118Z,1018.68
2018-02-15T07:18:34.138Z,1018.66
2018-02-15T07:19:34.150Z,1018.67
2018-02-15T07:20:34.171Z,1018.66
2018-02-15T07:21:34.175Z,1018.70
2018-02-15T07:22:34.200Z,1018.67
2018-02-15T07:23:34.214Z,1018.70
2018-02-15T07:24:34.248Z,1018.66
2018-02-15T07:25:34.273Z,1018.72
2018-02-15T07:26:34.268Z,1018.77
2018-02-15T07:27:34.306Z,1018.78
2018-02-15T07:28:34.323Z,1018.74
2018-02-15T07:29:34.330Z,1018.77
2018-02-15T07:30:34.349Z,1018.83
2018-02-15T07:31:34.365Z,1018.80
2018-02-15T07:32:34.382Z,1018.73
2018-02-15T07:33:34.398Z,1018.77
2018-02-15T07:34:34.421Z,1018.74
2018-02-15T07:35:34.430Z,1018.69
2018-02-15T07:36:34.454Z,1018.67
2018-02-15T07:37:34.465Z,1018.66
2018-02-15T07:38:34.493Z,1018.63
2018-02-15T07:39:34.507Z,1018.59
2018-02-15T07:40:34.520Z,1018.59
2018-02-15T07:41:34.541Z,1018.53
2018-02-15T07:42:34.576Z,1018.57
2018-02-15T07:43:34.642Z,1018.55
2018-02-15T07:44:34.589Z,1018.50
2018-02-15T07:45:34.614Z,1018.48
2018-02-15T07:46:34.623Z,1018.49
2018-02-15T07:47:34.655Z,1018.48
2018-02-15T07:48:34.661Z,1018.46
2018-02-15T07:49:34.688Z,1018.46
2018-02-15T07:50:34.710Z,1018.46
2018-02-15T07:51:34.717Z,1018.50
2018-02-15T07:52:34.748Z,1018.52
2018-02-15T07:53:34.749Z,1018.49
2018-02-15T07:54:34.764Z,1018.47
2018-02-15T07:55:34.788Z,1018.43
2018-02-15T07:56:34.823Z,1018.39
2018-02-15T07:57:34.823Z,1018.41
2018-02-15T07:58:34.861Z,1018.41
2018-02-15T07:59:34.860Z,1018.43
2018-02-15T08:00:34.894Z,1018.39
2018-02-15T08:01:34.897Z,1018.40
2018-02-15T08:02:34.923Z,1018.44
2018-02-15T08:03:34.929Z,1018.42
2018-02-15T08:04:34.968Z,1018.42
2018-02-15T08:05:34.978Z,1018.45
2018-02-15T08:06:34.986Z,1018.45
2018-02-15T08:07:34.998Z,1018.46
2018-02-15T08:08:35.027Z,1018.41
2018-02-15T08:09:35.105Z,1018.44
2018-02-15T08:10:35.062Z,1018.42
2018-02-15T08:11:35.124Z,1018.40
2018-02-15T08:12:35.096Z,1018.43
2018-02-15T08:13:35.149Z,1018.38
2018-02-15T08:14:35.135Z,1018.41
2018-02-15T08:15:35.155Z,1018.37
2018-02-15T08:16:35.167Z,1018.31
2018-02-15T08:17:35.189Z,1018.38
2018-02-15T08:18:35.197Z,1018.37
2018-02-15T08:19:35.217Z,1018.38
2018-02-15T08:20:35.238Z,1018.38
2018-02-15T08:21:35.261Z,1018.41
2018-02-15T08:22:35.416Z,1018.42
2018-02-15T08:23:35.288Z,1018.43
2018-02-15T08:24:35.352Z,1018.42
2018-02-15T08:25:35.342Z,1018.49
2018-02-15T08:26:35.355Z,1018.50
2018-02-15T08:27:35.361Z,1018.45
2018-02-15T08:28:35.497Z,1018.43
2018-02-15T08:29:35.477Z,1018.45
2018-02-15T08:30:35.440Z,1018.45
2018-02-15T08:31:35.444Z,1018.56
2018-02-15T08:32:35.455Z,1018.51
2018-02-15T08:33:35.471Z,1018.54
2018-02-15T08:34:35.494Z,1018.54
2018-02-15T08:35:35.586Z,1018.52
2018-02-15T08:36:35.534Z,1018.51
2018-02-15T08:37:35.554Z,1018.48
2018-02-15T08:38:35.583Z,1018.50
2018-02-15T08:39:35.631Z,1018.50
2018-02-15T08:40:35.612Z,1018.55
2018-02-15T08:41:35.630Z,1018.57
2018-02-15T08:42:35.671Z,1018.59
2018-02-15T08:43:35.694Z,1018.57
2018-02-15T08:44:35.675Z,1018.58
2018-02-15T08:45:35.706Z,1018.55
2018-02-15T08:46:35.714Z,1018.57
2018-02-15T08:47:35.730Z,1018.54
2018-02-15T08:48:35.750Z,1018.53
2018-02-15T08:49:35.772Z,1018.57
2018-02-15T08:50:35.782Z,1018.56
2018-02-15T08:51:35.797Z,1018.56
2018-02-15T08:52:35.834Z,1018.55
2018-02-15T08:53:35.877Z,1018.57
2018-02-15T08:54:35.861Z,1018.59
2018-02-15T08:55:35.886Z,1018.59
2018-02-15T08:56:35.895Z,1018.57
2018-02-15T08:57:35.915Z,1018.54
2018-02-15T08:58:35.932Z,1018.52
2018-02-15T08:59:35.951Z,1018.57
2018-02-15T09:00:35.980Z,1018.56
2018-02-15T09:01:36.003Z,1018.60
2018-02-15T09:02:36.008Z,1018.56
2018-02-15T09:03:36.027Z,1018.64
2018-02-15T09:04:36.049Z,1018.61
2018-02-15T09:05:36.057Z,1018.64
2018-02-15T09:06:36.083Z,1018.62
2018-02-15T09:07:36.102Z,1018.59
2018-02-15T09:08:36.115Z,1018.60
2018-02-15T09:09:36.141Z,1018.60
2018-02-15T09:10:36.175Z,1018.57
2018-02-15T09:11:36.173Z,1018.65
2018-02-15T09:12:36.219Z,1018.56
2018-02-15T09:13:36.223Z,1018.55
2018-02-15T09:14:36.227Z,1018.56
2018-02-15T09:15:36.248Z,1018.60
2018-02-15T09:16:36.266Z,1018.61
2018-02-15T09:17:36.288Z,1018.62
2018-02-15T09:18:36.315Z,1018.61
2018-02-15T09:19:36.324Z,1018.64
2018-02-15T09:20:36.339Z,1018.67
2018-02-15T09:21:36.360Z,1018.66
2018-02-15T09:22:36.387Z,1018.63
2018-02-15T09:23:36.393Z,1018.58
2018-02-15T09:24:36.412Z,1018.52
2018-02-15T09:25:36.432Z,1018.46
2018-02-15T09:26:36.449Z,1018.43
2018-02-15T09:27:36.467Z,1018.34
2018-02-15T09:28:36.494Z,1018.41
2018-02-15T09:29:36.510Z,1018.44
2018-02-15T09:30:36.530Z,1018.37
2018-02-15T09:31:36.549Z,1018.39
2018-02-15T09:32:36.571Z,1018.36
2018-02-15T09:33:36.591Z,1018.40
2018-02-15T09:34:36.607Z,1018.39
2018-02-15T09:35:36.622Z,1018.35
2018-02-15T09:36:36.661Z,1018.35
2018-02-15T09:37:36.666Z,1018.37
2018-02-15T09:38:36.689Z,1018.32
2018-02-15T09:39:36.706Z,1018.31
2018-02-15T09:40:37.345Z,1018.41
2018-02-15T09:41:36.748Z,1018.34
2018-02-15T09:42:36.763Z,1018.40
2018-02-15T09:43:36.781Z,1018.37
2018-02-15T09:44:36.800Z,1018.31
2018-02-15T09:45:36.838Z,1018.33
2018-02-15T09:46:36.839Z,1018.28
2018-02-15T09:47:36.864Z,1018.33
2018-02-15T09:48:36.880Z,1018.30
2018-02-15T09:49:36.910Z,1018.23
2018-02-15T09:50:36.918Z,1018.19
2018-02-15T09:51:36.940Z,1018.19
2018-02-15T09:52:36.952Z,1018.21
2018-02-15T09:53:37.047Z,1018.20
2018-02-15T09:54:37.001Z,1018.14
2018-02-15T09:55:37.035Z,1018.14
2018-02-15T09:56:37.035Z,1018.18
2018-02-15T09:57:37.062Z,1018.17
2018-02-15T09:58:37.080Z,1018.26
2018-02-15T09:59:37.094Z,1018.24
2018-02-15T10:00:37.114Z,1018.16
2018-02-15T10:01:37.153Z,1018.26
2018-02-15T10:02:37.153Z,1018.25
2018-02-15T10:03:37.184Z,1018.21
2018-02-15T10:04:37.188Z,1018.24
2018-02-15T10:05:37.223Z,1018.27
2018-02-15T10:06:37.260Z,1018.24
2018-02-15T10:07:37.252Z,1018.30
2018-02-15T10:08:37.269Z,1018.29
2018-02-15T10:09:37.296Z,1018.25
2018-02-15T10:10:37.316Z,1018.25
2018-02-15T10:11:37.323Z,1018.24
2018-02-15T10:12:37.345Z,1018.26
2018-02-15T10:13:37.365Z,1018.29
2018-02-15T10:14:37.385Z,1018.28
2018-02-15T10:15:37.417Z,1018.30
2018-02-15T10:16:37.434Z,1018.33
2018-02-15T10:17:37.442Z,1018.29
2018-02-15T10:18:37.475Z,1018.33
2018-02-15T10:19:37.495Z,1018.35
2018-02-15T10:20:37.559Z,1018.30
2018-02-15T10:21:37.524Z,1018.31
2018-02-15T10:22:37.558Z,1018.31
2018-02-15T10:23:37.577Z,1018.24
2018-02-15T10:24:37.586Z,1018.30
2018-02-15T10:25:37.616Z,1018.25
2018-02-15T10:26:37.632Z,1018.32
2018-02-15T10:27:37.662Z,1018.29
2018-02-15T10:28:37.668Z,1018.31
2018-02-15T10:29:37.702Z,1018.29
2018-02-15T10:30:37.710Z,1018.28
2018-02-15T10:31:37.736Z,1018.31
2018-02-15T10:32:37.751Z,1018.23
2018-02-15T10:33:37.781Z,1018.25
2018-02-15T10:34:37.813Z,1018.30
2018-02-15T10:35:37.832Z,1018.29
2018-02-15T10:36:37.849Z,1018.30
2018-02-15T10:37:37.879Z,1018.29
2018-02-15T10:38:37.893Z,1018.29
2018-02-15T10:39:37.920Z,1018.31
2018-02-15T10:40:37.947Z,1018.28
2018-02-15T10:41:37.967Z,1018.29
2018-02-15T10:42:37.999Z,1018.24
2018-02-15T10:43:38.023Z,1018.22
2018-02-15T10:44:38.037Z,1018.16
2018-02-15T10:45:38.081Z,1018.19
2018-02-15T10:46:38.100Z,1018.18
2018-02-15T10:47:38.116Z,1018.22
2018-02-15T10:48:38.146Z,1018.16
2018-02-15T10:49:38.168Z,1018.17
2018-02-15T10:50:38.200Z,1018.12
2018-02-15T10:51:38.224Z,1018.18
2018-02-15T10:52:38.252Z,1018.17
2018-02-15T10:53:38.277Z,1018.19
2018-02-15T10:54:38.309Z,1018.18
2018-02-15T10:55:38.335Z,1018.20
2018-02-15T10:56:38.356Z,1018.16
2018-02-15T10:57:38.386Z,1018.18
2018-02-15T10:58:38.415Z,1018.14
2018-02-15T10:59:38.451Z,1018.08
2018-02-15T11:00:38.481Z,1018.14
2018-02-15T11:01:38.500Z,1018.10
2018-02-15T11:02:38.528Z,1018.10
2018-02-15T11:03:38.553Z,1018.16
2018-02-15T11:04:38.585Z,1018.15
2018-02-15T11:05:38.619Z,1018.09
2018-02-15T11:06:38.641Z,1018.04
2018-02-15T11:07:38.673Z,1017.99
2018-02-15T11:08:38.697Z,1017.95
2018-02-15T11:09:38.728Z,1017.99
2018-02-15T11:10:38.759Z,1017.90
2018-02-15T11:11:38.801Z,1017.90
2018-02-15T11:12:38.812Z,1017.92
2018-02-15T11:13:38.848Z,1017.94
2018-02-15T11:14:38.878Z,1017.96
2018-02-15T11:15:38.903Z,1017.87
2018-02-15T11:16:38.930Z,1017.82
2018-02-15T11:17:38.959Z,1017.84
2018-02-15T11:18:38.987Z,1017.83
2018-02-15T11:19:39.002Z,1017.79
2018-02-15T11:20:39.034Z,1017.74
2018-02-15T11:21:39.069Z,1017.73
2018-02-15T11:22:39.100Z,1017.65
2018-02-15T11:23:39.135Z,1017.61
2018-02-15T11:24:39.167Z,1017.65
2018-02-15T11:25:39.183Z,1017.61
2018-02-15T11:26:39.209Z,1017.63
2018-02-15T11:27:39.231Z,1017.58
2018-02-15T11:28:39.267Z,1017.53
2018-02-15T11:29:39.278Z,1017.52
2018-02-15T11:30:39.314Z,1017.50
2018-02-15T11:31:39.353Z,1017.43
2018-02-15T11:32:39.360Z,1017.43
2018-02-15T11:33:39.383Z,1017.39
2018-02-15T11:34:39.423Z,1017.37
2018-02-15T11:35:39.447Z,1017.34
2018-02-15T11:36:39.586Z,1017.27
2018-02-15T11:37:39.500Z,1017.28
2018-02-15T11:38:39.521Z,1017.25
2018-02-15T11:39:39.554Z,1017.23
2018-02-15T11:40:39.579Z,1017.19
2018-02-15T11:41:39.605Z,1017.12
2018-02-15T11:42:39.625Z,1017.02
2018-02-15T11:43:39.658Z,1017.06
2018-02-15T11:44:39.686Z,1017.08
2018-02-15T11:45:39.738Z,1017.16
2018-02-15T11:46:39.738Z,1017.13
2018-02-15T11:47:39.752Z,1017.09
2018-02-15T11:48:39.771Z,1017.12
2018-02-15T11:49:39.806Z,1017.10
2018-02-15T11:50:39.829Z,1017.07
2018-02-15T11:51:39.860Z,1017.05
2018-02-15T11:52:39.875Z,1016.99
2018-02-15T11:53:39.907Z,1017.02
2018-02-15T11:54:39.934Z,1016.99
2018-02-15T11:55:39.951Z,1016.98
2018-02-15T11:56:40.015Z,1016.89
2018-02-15T11:57:40.013Z,1016.90
2018-02-15T11:58:40.037Z,1016.82
2018-02-15T11:59:40.051Z,1016.80
2018-02-15T12:00:40.082Z,1016.74
2018-02-15T12:01:40.094Z,1016.73
2018-02-15T12:02:40.122Z,1016.69
2018-02-15T12:03:40.151Z,1016.71
2018-02-15T12:04:40.177Z,1016.78
2018-02-15T12:05:40.201Z,1016.73
2018-02-15T12:06:40.218Z,1016.70